createdAt,value
2022-08-17T00:00:43.125Z,3.87
2022-08-17T00:03:18.991Z,4.70
2022-08-17T00:05:47.900Z,3.63
2022-08-17T00:08:21.428Z,3.73
2022-08-17T00:10:52.544Z,4.17
2022-08-17T00:13:24.595Z,3.90
2022-08-17T00:15:55.565Z,3.40
2022-08-17T00:19:01.157Z,3.90
2022-08-17T00:21:17.281Z,3.87
2022-08-17T00:23:53.180Z,3.90
2022-08-17T00:26:34.688Z,4.10
2022-08-17T00:29:19.643Z,4.00
2022-08-17T00:31:46.861Z,4.13
2022-08-17T00:34:16.274Z,4.37
2022-08-17T00:36:43.038Z,3.77
2022-08-17T00:39:14.526Z,3.80
2022-08-17T00:41:43.488Z,3.63
2022-08-17T00:44:12.003Z,4.10
2022-08-17T00:46:43.597Z,4.20
2022-08-17T00:49:12.965Z,4.20
2022-08-17T00:52:11.946Z,3.43
2022-08-17T00:54:42.562Z,4.17
2022-08-17T00:57:22.127Z,4.10
2022-08-17T01:00:02.792Z,4.30
2022-08-17T01:02:41.226Z,4.50
2022-08-17T01:05:26.129Z,3.93
2022-08-17T01:07:57.180Z,4.40
2022-08-17T01:10:59.609Z,3.90
2022-08-17T01:13:30.170Z,4.23
2022-08-17T01:16:07.628Z,4.00
2022-08-17T01:18:38.174Z,4.20
2022-08-17T01:21:20.180Z,4.03
2022-08-17T01:23:51.957Z,4.00
2022-08-17T01:26:21.961Z,4.20
2022-08-17T01:28:53.911Z,3.87
2022-08-17T01:31:32.576Z,4.13
2022-08-17T01:34:03.309Z,3.90
2022-08-17T01:36:31.228Z,4.00
2022-08-17T01:39:02.865Z,4.20
2022-08-17T01:41:30.127Z,3.90
2022-08-17T01:44:07.346Z,3.80
2022-08-17T01:46:37.333Z,3.77
2022-08-17T01:49:11.747Z,4.47
2022-08-17T01:51:44.220Z,3.90
2022-08-17T01:54:15.823Z,4.27
2022-08-17T01:56:48.505Z,4.00
2022-08-17T01:59:22.463Z,3.73
2022-08-17T02:01:52.832Z,3.73
2022-08-17T02:04:19.752Z,4.30
2022-08-17T02:06:53.170Z,4.30
2022-08-17T02:09:29.791Z,4.13
2022-08-17T02:12:37.195Z,4.00
2022-08-17T02:14:52.924Z,4.40
2022-08-17T02:17:19.720Z,4.10
2022-08-17T02:19:48.715Z,4.13
2022-08-17T02:22:20.533Z,3.67
2022-08-17T02:25:00.618Z,4.20
2022-08-17T02:27:33.763Z,4.10
2022-08-17T02:30:00.553Z,4.57
2022-08-17T02:32:28.676Z,4.00
2022-08-17T02:35:00.340Z,4.13
2022-08-17T02:37:35.612Z,3.50
2022-08-17T02:40:04.094Z,4.10
2022-08-17T02:42:41.557Z,4.00
2022-08-17T02:45:22.997Z,3.97
2022-08-17T02:47:51.610Z,3.90
2022-08-17T02:50:24.445Z,3.90
2022-08-17T02:53:01.635Z,4.83
2022-08-17T02:55:36.418Z,4.13
2022-08-17T02:58:04.626Z,3.77
2022-08-17T03:00:41.815Z,3.80
2022-08-17T03:03:13.438Z,4.20
2022-08-17T03:05:40.722Z,4.10
2022-08-17T03:08:13.294Z,3.63
2022-08-17T03:10:41.735Z,4.20
2022-08-17T03:13:12.620Z,3.90
2022-08-17T03:15:44.972Z,4.23
2022-08-17T03:18:19.111Z,4.37
2022-08-17T03:20:57.987Z,4.40
2022-08-17T03:23:29.585Z,4.47
2022-08-17T03:26:02.599Z,3.97
2022-08-17T03:28:29.422Z,4.07
2022-08-17T03:30:56.307Z,4.50
2022-08-17T03:33:25.363Z,4.13
2022-08-17T03:35:54.792Z,4.30
2022-08-17T03:38:26.126Z,4.33
2022-08-17T03:40:59.533Z,4.97
2022-08-17T03:43:32.917Z,4.37
2022-08-17T03:46:27.753Z,4.17
2022-08-17T03:49:21.333Z,4.07
2022-08-17T03:52:06.423Z,4.20
2022-08-17T03:54:54.202Z,4.50
2022-08-17T03:57:25.812Z,4.57
2022-08-17T03:59:56.307Z,4.30
2022-08-17T04:02:36.023Z,4.40
2022-08-17T04:05:07.945Z,4.40
2022-08-17T04:07:34.724Z,4.50
2022-08-17T04:10:04.461Z,5.30
2022-08-17T04:13:03.367Z,4.93
2022-08-17T04:15:30.945Z,4.83
2022-08-17T04:17:59.978Z,4.10
2022-08-17T04:20:30.973Z,4.93
2022-08-17T04:23:04.960Z,4.50
2022-08-17T04:25:38.926Z,4.50
2022-08-17T04:28:07.619Z,4.93
2022-08-17T04:30:45.121Z,4.33
2022-08-17T04:33:23.953Z,4.20
2022-08-17T04:35:58.469Z,4.47
2022-08-17T04:38:29.955Z,4.60
2022-08-17T04:41:17.876Z,4.30
2022-08-17T04:43:49.841Z,4.43
2022-08-17T04:46:22.972Z,4.37
2022-08-17T04:48:53.310Z,4.47
2022-08-17T04:51:25.024Z,4.90
2022-08-17T04:54:02.532Z,4.13
2022-08-17T04:56:31.298Z,4.60
2022-08-17T04:59:09.614Z,4.23
2022-08-17T05:01:42.197Z,4.93
2022-08-17T05:04:20.770Z,4.40
2022-08-17T05:06:55.033Z,4.20
2022-08-17T05:09:24.689Z,4.57
2022-08-17T05:11:53.701Z,4.37
2022-08-17T05:14:33.103Z,4.43
2022-08-17T05:17:07.234Z,4.50
2022-08-17T05:19:41.016Z,5.20
2022-08-17T05:22:08.224Z,4.67
2022-08-17T05:24:41.251Z,4.30
2022-08-17T05:27:20.216Z,4.27
2022-08-17T05:29:49.435Z,4.13
2022-08-17T05:32:38.770Z,4.23
2022-08-17T05:35:11.716Z,4.60
2022-08-17T05:37:43.121Z,4.27
2022-08-17T05:40:13.322Z,4.10
2022-08-17T05:42:44.329Z,4.97
2022-08-17T05:45:54.841Z,4.53
2022-08-17T05:48:07.204Z,4.30
2022-08-17T05:50:53.574Z,4.73
2022-08-17T05:53:52.432Z,4.77
2022-08-17T05:56:31.122Z,4.37
2022-08-17T05:59:09.876Z,3.80
2022-08-17T06:02:26.356Z,4.30
2022-08-17T06:05:10.222Z,4.40
2022-08-17T06:07:52.579Z,4.03
2022-08-17T06:10:40.308Z,4.43
2022-08-17T06:13:44.778Z,4.70
2022-08-17T06:16:33.231Z,5.00
2022-08-17T06:19:18.667Z,5.37
2022-08-17T06:21:53.294Z,5.20
2022-08-17T06:25:02.487Z,5.47
2022-08-17T06:27:40.238Z,5.90
2022-08-17T06:30:27.760Z,4.93
2022-08-17T06:33:05.934Z,5.03
2022-08-17T06:35:48.680Z,4.83
2022-08-17T06:38:47.131Z,4.97
2022-08-17T06:41:44.792Z,4.93
2022-08-17T06:44:43.284Z,4.67
2022-08-17T06:47:41.863Z,4.57
2022-08-17T06:50:15.472Z,4.90
2022-08-17T06:53:23.331Z,5.13
2022-08-17T06:56:13.679Z,4.40
2022-08-17T06:58:43.979Z,4.60
2022-08-17T07:01:34.614Z,4.03
2022-08-17T07:04:23.662Z,4.50
2022-08-17T07:07:26.965Z,4.60
2022-08-17T07:09:58.857Z,4.93
2022-08-17T07:12:37.603Z,4.23
2022-08-17T07:15:18.855Z,4.93
2022-08-17T07:17:48.631Z,6.20
2022-08-17T07:20:22.577Z,5.63
2022-08-17T07:23:11.030Z,5.43
2022-08-17T07:25:42.449Z,4.87
2022-08-17T07:28:12.969Z,5.00
2022-08-17T07:30:53.458Z,4.97
2022-08-17T07:33:31.245Z,4.63
2022-08-17T07:35:59.258Z,4.90
2022-08-17T07:38:32.797Z,4.50
2022-08-17T07:41:10.599Z,4.40
2022-08-17T07:43:40.480Z,5.00
2022-08-17T07:46:39.602Z,5.20
2022-08-17T07:49:10.092Z,4.93
2022-08-17T07:51:52.992Z,5.20
2022-08-17T07:54:27.444Z,5.00
2022-08-17T07:57:02.006Z,4.67
2022-08-17T07:59:37.698Z,4.37
2022-08-17T08:02:40.268Z,4.67
2022-08-17T08:05:48.815Z,4.77
2022-08-17T08:08:42.592Z,4.73
2022-08-17T08:11:31.600Z,4.83
2022-08-17T08:14:38.194Z,4.70
2022-08-17T08:17:13.182Z,4.40
2022-08-17T08:19:42.362Z,4.53
2022-08-17T08:22:23.779Z,5.20
2022-08-17T08:25:07.859Z,5.27
2022-08-17T08:27:54.846Z,4.90
2022-08-17T08:30:22.841Z,5.50
2022-08-17T08:33:29.398Z,5.03
2022-08-17T08:37:02.041Z,5.07
2022-08-17T08:39:20.374Z,4.80
2022-08-17T08:42:24.169Z,5.23
2022-08-17T08:45:22.604Z,5.33
2022-08-17T08:48:22.905Z,4.90
2022-08-17T08:51:29.462Z,5.00
2022-08-17T08:54:06.021Z,5.27
2022-08-17T09:00:15.195Z,4.80
2022-08-17T09:03:10.791Z,5.20
2022-08-17T09:05:53.387Z,4.90
2022-08-17T09:08:50.312Z,4.80
2022-08-17T09:12:02.623Z,4.80
2022-08-17T09:15:08.283Z,5.40
2022-08-17T09:19:01.893Z,4.57
2022-08-17T09:21:14.405Z,4.70
2022-08-17T09:24:08.017Z,5.27
2022-08-17T09:26:48.583Z,4.90
2022-08-17T09:29:24.371Z,5.30
2022-08-17T09:32:03.770Z,5.03
2022-08-17T09:35:01.388Z,4.50
2022-08-17T09:37:54.406Z,4.53
2022-08-17T09:40:32.942Z,5.03
2022-08-17T09:43:21.889Z,5.43
2022-08-17T09:46:01.722Z,5.00
2022-08-17T09:48:41.241Z,4.60
2022-08-17T09:51:22.427Z,5.00
2022-08-17T09:53:50.168Z,5.30
2022-08-17T09:56:56.541Z,5.00
2022-08-17T10:00:12.154Z,4.37
2022-08-17T10:03:36.121Z,4.87
2022-08-17T10:06:21.607Z,5.10
2022-08-17T10:08:52.449Z,5.57
2022-08-17T10:11:50.476Z,5.37
2022-08-17T10:15:07.686Z,5.33
2022-08-17T10:17:50.541Z,5.50
2022-08-17T10:20:23.166Z,7.20
2022-08-17T10:23:15.466Z,6.17
2022-08-17T10:26:13.522Z,5.50
2022-08-17T10:29:12.458Z,5.30
2022-08-17T10:31:52.162Z,5.97
2022-08-17T10:34:38.872Z,5.63
2022-08-17T10:37:50.870Z,5.30
2022-08-17T10:40:36.919Z,5.00
2022-08-17T10:44:36.735Z,6.00
2022-08-17T10:46:33.958Z,5.20
2022-08-17T10:49:20.986Z,5.10
2022-08-17T10:51:54.222Z,5.20
2022-08-17T10:54:46.251Z,5.63
2022-08-17T10:57:36.434Z,5.40
2022-08-17T11:00:15.842Z,6.17
2022-08-17T11:02:57.350Z,5.47
2022-08-17T11:06:06.094Z,5.77
2022-08-17T11:08:47.097Z,5.17
2022-08-17T11:11:36.051Z,5.53
2022-08-17T11:14:47.190Z,5.90
2022-08-17T11:17:35.199Z,5.50
2022-08-17T11:20:34.705Z,6.60
2022-08-17T11:23:34.102Z,5.60
2022-08-17T11:26:04.206Z,6.07
2022-08-17T11:28:48.714Z,6.10
2022-08-17T11:31:39.181Z,6.00
2022-08-17T11:34:06.513Z,5.77
2022-08-17T11:37:00.798Z,5.80
2022-08-17T11:39:30.832Z,5.37
2022-08-17T11:42:23.397Z,5.80
2022-08-17T11:44:58.289Z,5.63
2022-08-17T11:48:53.270Z,5.40
2022-08-17T11:52:09.185Z,5.63
2022-08-17T11:54:47.199Z,5.53
2022-08-17T11:57:26.369Z,5.87
2022-08-17T11:59:59.868Z,5.53
2022-08-17T12:02:32.915Z,6.23
2022-08-17T12:05:17.279Z,5.40
2022-08-17T12:08:15.114Z,5.13
2022-08-17T12:12:11.175Z,6.13
2022-08-17T12:14:11.656Z,5.40
2022-08-17T12:16:44.197Z,5.43
2022-08-17T12:19:23.701Z,5.10
2022-08-17T12:21:54.857Z,5.57
2022-08-17T12:24:56.550Z,6.13
2022-08-17T12:27:56.823Z,6.07
2022-08-17T12:30:27.782Z,4.97
2022-08-17T12:32:54.796Z,5.10
2022-08-17T12:35:35.904Z,5.40
2022-08-17T12:38:32.031Z,5.00
2022-08-17T12:40:58.392Z,5.20
2022-08-17T12:43:32.795Z,5.37
2022-08-17T12:46:13.034Z,5.00
2022-08-17T12:48:59.074Z,5.67
2022-08-17T12:51:29.989Z,4.90
2022-08-17T12:53:57.325Z,5.37
2022-08-17T12:56:26.605Z,5.27
2022-08-17T12:58:54.940Z,5.10
2022-08-17T13:01:25.038Z,5.53
2022-08-17T13:03:59.518Z,5.37
2022-08-17T13:06:35.817Z,5.67
2022-08-17T13:09:21.059Z,5.37
2022-08-17T13:11:55.109Z,5.30
2022-08-17T13:14:22.457Z,5.27
2022-08-17T13:16:56.066Z,5.07
2022-08-17T13:19:39.685Z,5.28
2022-08-17T13:22:12.554Z,5.10
2022-08-17T13:24:53.367Z,5.50
2022-08-17T13:27:24.927Z,5.23
2022-08-17T13:29:59.497Z,5.30
2022-08-17T13:32:48.473Z,5.78
2022-08-17T13:35:50.141Z,5.57
2022-08-17T13:38:49.608Z,5.47
2022-08-17T13:41:39.965Z,4.95
2022-08-17T13:44:41.469Z,5.20
2022-08-17T13:47:20.237Z,5.40
2022-08-17T13:49:49.606Z,5.63
2022-08-17T13:52:45.867Z,4.80
2022-08-17T13:55:22.793Z,5.07
2022-08-17T13:57:57.789Z,5.07
2022-08-17T14:00:37.044Z,4.90
2022-08-17T14:03:05.828Z,4.93
2022-08-17T14:05:38.055Z,5.03
2022-08-17T14:08:07.857Z,5.23
2022-08-17T14:10:39.369Z,4.87
2022-08-17T14:13:07.892Z,4.77
2022-08-17T14:15:54.830Z,5.43
2022-08-17T14:18:55.412Z,4.80
2022-08-17T14:21:13.243Z,5.20
2022-08-17T14:23:49.006Z,4.90
2022-08-17T14:26:24.398Z,4.50
2022-08-17T14:28:56.723Z,4.67
2022-08-17T14:31:27.515Z,4.67
2022-08-17T14:33:58.827Z,4.65
2022-08-17T14:36:26.299Z,4.35
2022-08-17T14:38:57.845Z,4.85
2022-08-17T14:41:26.884Z,4.40
2022-08-17T14:43:53.870Z,5.00
2022-08-17T14:46:23.220Z,4.47
2022-08-17T14:48:57.519Z,4.65
2022-08-17T14:51:24.499Z,4.50
2022-08-17T14:53:51.333Z,4.68
2022-08-17T14:56:20.701Z,4.20
2022-08-17T14:58:49.777Z,4.22
2022-08-17T15:01:16.655Z,4.88
2022-08-17T15:03:43.854Z,4.55
2022-08-17T15:06:11.738Z,4.15
2022-08-17T15:08:44.624Z,4.00
2022-08-17T15:11:14.273Z,4.28
2022-08-17T15:13:52.252Z,4.82
2022-08-17T15:16:23.489Z,4.13
2022-08-17T15:18:50.944Z,4.85
2022-08-17T15:21:18.109Z,4.75
2022-08-17T15:23:45.042Z,4.03
2022-08-17T15:26:11.996Z,4.78
2022-08-17T15:28:38.773Z,4.43
2022-08-17T15:31:07.949Z,4.30
2022-08-17T15:33:34.816Z,4.03
2022-08-17T15:36:06.434Z,4.45
2022-08-17T15:38:39.596Z,4.30
2022-08-17T15:41:17.806Z,4.60
2022-08-17T15:43:51.683Z,4.03
2022-08-17T15:46:25.806Z,4.57
2022-08-17T15:49:00.146Z,4.35
2022-08-17T15:51:32.833Z,4.70
2022-08-17T15:54:18.629Z,4.45
2022-08-17T15:56:51.615Z,5.05
2022-08-17T15:59:20.625Z,4.55
2022-08-17T16:03:13.819Z,4.53
2022-08-17T16:04:44.240Z,4.20
2022-08-17T16:07:14.490Z,4.15
2022-08-17T16:09:41.912Z,4.55
2022-08-17T16:12:16.597Z,3.97
2022-08-17T16:14:49.817Z,4.72
2022-08-17T16:17:39.998Z,4.18
2022-08-17T16:20:05.877Z,4.50
2022-08-17T16:22:40.856Z,5.45
2022-08-17T16:25:22.210Z,3.90
2022-08-17T16:27:53.219Z,4.40
2022-08-17T16:30:29.031Z,4.30
2022-08-17T16:33:01.456Z,4.72
2022-08-17T16:35:31.322Z,4.38
2022-08-17T16:38:00.854Z,4.07
2022-08-17T16:40:36.116Z,4.40
2022-08-17T16:43:06.920Z,4.30
2022-08-17T16:45:40.025Z,3.88
2022-08-17T16:48:08.756Z,4.50
2022-08-17T16:50:40.241Z,4.18
2022-08-17T16:53:17.311Z,4.63
2022-08-17T16:55:46.110Z,4.18
2022-08-17T16:58:13.231Z,4.03
2022-08-17T17:00:44.983Z,4.30
2022-08-17T17:03:19.803Z,4.82
2022-08-17T17:06:15.456Z,4.10
2022-08-17T17:09:10.902Z,4.13
2022-08-17T17:11:52.180Z,4.10
2022-08-17T17:14:41.013Z,4.10
2022-08-17T17:17:26.847Z,4.00
2022-08-17T17:20:15.247Z,4.33
2022-08-17T17:23:17.295Z,4.47
2022-08-17T17:26:01.607Z,4.07
2022-08-17T17:29:00.558Z,4.27
2022-08-17T17:31:39.272Z,4.23
2022-08-17T17:34:13.692Z,4.00
2022-08-17T17:36:53.691Z,4.20
2022-08-17T17:39:41.463Z,4.20
2022-08-17T17:42:24.793Z,4.40
2022-08-17T17:45:34.885Z,3.97
2022-08-17T17:48:04.184Z,4.10
2022-08-17T17:50:51.320Z,4.30
2022-08-17T17:53:51.683Z,4.27
2022-08-17T17:56:43.790Z,4.37
2022-08-17T17:59:43.894Z,4.03
2022-08-17T18:02:42.491Z,4.30
2022-08-17T18:05:37.394Z,4.47
2022-08-17T18:08:34.368Z,4.17
2022-08-17T18:11:40.039Z,4.30
2022-08-17T18:14:24.850Z,4.20
2022-08-17T18:17:00.033Z,4.37
2022-08-17T18:19:34.151Z,4.43
2022-08-17T18:22:19.816Z,4.60
2022-08-17T18:24:56.073Z,4.30
2022-08-17T18:27:34.407Z,4.40
2022-08-17T18:30:26.259Z,4.33
2022-08-17T18:32:54.480Z,4.63
2022-08-17T18:35:30.563Z,4.63
2022-08-17T18:38:30.490Z,4.10
2022-08-17T18:41:19.844Z,5.13
2022-08-17T18:44:23.360Z,5.87
2022-08-17T18:47:17.665Z,5.17
2022-08-17T18:50:25.674Z,4.57
2022-08-17T18:52:55.213Z,4.07
2022-08-17T18:55:32.629Z,4.23
2022-08-17T18:58:26.890Z,6.53
2022-08-17T19:00:54.957Z,6.20
2022-08-17T19:03:28.970Z,4.93
2022-08-17T19:06:31.087Z,4.17
2022-08-17T19:08:59.988Z,4.47
2022-08-17T19:11:34.700Z,4.30
2022-08-17T19:14:13.511Z,4.73
2022-08-17T19:16:55.775Z,4.53
2022-08-17T19:19:33.997Z,4.93
2022-08-17T19:22:28.691Z,4.37
2022-08-17T19:25:17.049Z,4.70
2022-08-17T19:28:22.442Z,4.50
2022-08-17T19:30:59.731Z,4.63
2022-08-17T19:33:37.837Z,5.40
2022-08-17T19:36:24.352Z,4.53
2022-08-17T19:39:04.301Z,4.53
2022-08-17T19:41:46.508Z,4.50
2022-08-17T19:44:32.123Z,4.47
2022-08-17T19:47:50.931Z,4.50
2022-08-17T19:50:29.936Z,4.43
2022-08-17T19:53:07.241Z,4.83
2022-08-17T19:55:50.943Z,4.73
2022-08-17T19:59:09.576Z,5.13
2022-08-17T20:02:01.370Z,4.50
2022-08-17T20:04:32.415Z,4.80
2022-08-17T20:07:26.865Z,5.17
2022-08-17T20:10:06.873Z,5.10
2022-08-17T20:12:43.509Z,4.97
2022-08-17T20:15:20.728Z,4.90
2022-08-17T20:17:48.740Z,4.90
2022-08-17T20:20:56.529Z,4.67
2022-08-17T20:23:55.949Z,5.03
2022-08-17T20:26:28.010Z,4.97
2022-08-17T20:29:09.255Z,5.57
2022-08-17T20:31:49.554Z,5.83
2022-08-17T20:34:30.847Z,5.80
2022-08-17T20:37:16.363Z,5.40
2022-08-17T20:39:54.107Z,5.30
2022-08-17T20:42:20.937Z,5.73
2022-08-17T20:44:57.901Z,5.83
2022-08-17T20:48:17.385Z,5.53
2022-08-17T20:50:55.078Z,5.03
2022-08-17T20:54:06.378Z,5.40
2022-08-17T20:56:44.995Z,5.13
2022-08-17T20:59:21.162Z,5.63
2022-08-17T21:02:19.050Z,6.00
2022-08-17T21:04:56.331Z,6.13
2022-08-17T21:07:33.166Z,6.17
2022-08-17T21:10:15.583Z,6.07
2022-08-17T21:13:32.358Z,6.53
2022-08-17T21:16:24.150Z,5.53
2022-08-17T21:19:48.977Z,5.63
2022-08-17T21:22:31.855Z,5.00
2022-08-17T21:25:12.055Z,5.37
2022-08-17T21:27:56.169Z,5.70
2022-08-17T21:30:28.891Z,5.50
2022-08-17T21:33:20.525Z,4.87
2022-08-17T21:35:51.916Z,5.70
2022-08-17T21:38:39.586Z,4.40
2022-08-17T21:41:06.534Z,5.17
2022-08-17T21:43:37.370Z,5.30
2022-08-17T21:46:12.845Z,5.87
2022-08-17T21:48:48.359Z,5.87
2022-08-17T21:51:28.853Z,6.20
2022-08-17T21:54:27.651Z,6.00
2022-08-17T21:57:02.159Z,5.30
2022-08-17T21:59:37.941Z,5.70
2022-08-17T22:02:18.730Z,6.10
2022-08-17T22:05:10.159Z,5.87
2022-08-17T22:08:09.366Z,5.53
2022-08-17T22:10:48.921Z,5.40
2022-08-17T22:13:24.098Z,5.33
2022-08-17T22:16:15.553Z,5.43
2022-08-17T22:18:58.874Z,5.23
2022-08-17T22:21:28.282Z,5.43
2022-08-17T22:24:06.930Z,5.73
2022-08-17T22:27:07.485Z,5.43
2022-08-17T22:30:02.903Z,6.00
2022-08-17T22:32:44.585Z,5.50
2022-08-17T22:35:36.699Z,5.67
2022-08-17T22:38:18.558Z,5.20
2022-08-17T22:41:22.138Z,5.90
2022-08-17T22:43:50.578Z,5.40
2022-08-17T22:46:24.235Z,5.53
2022-08-17T22:48:59.236Z,5.80
2022-08-17T22:51:30.854Z,5.50
2022-08-17T22:54:35.355Z,6.20
2022-08-17T22:57:23.211Z,5.73
2022-08-17T22:59:55.897Z,5.60
2022-08-17T23:02:32.240Z,5.37
2022-08-17T23:05:12.731Z,5.97
2022-08-17T23:07:44.484Z,6.97
2022-08-17T23:10:13.210Z,7.10
2022-08-17T23:12:40.529Z,6.57
2022-08-17T23:15:19.944Z,6.53
2022-08-17T23:17:47.612Z,6.40
2022-08-17T23:20:17.991Z,6.63
2022-08-17T23:22:51.998Z,7.17
2022-08-17T23:25:32.140Z,6.67
2022-08-17T23:28:01.421Z,6.13
2022-08-17T23:30:38.077Z,6.77
2022-08-17T23:33:11.825Z,6.77
2022-08-17T23:35:41.181Z,6.20
2022-08-17T23:38:15.558Z,6.37
2022-08-17T23:40:44.880Z,5.80
2022-08-17T23:43:24.705Z,6.50
2022-08-17T23:46:03.890Z,6.43
2022-08-17T23:48:37.399Z,6.80
2022-08-17T23:51:19.100Z,6.60
2022-08-17T23:53:55.125Z,6.47
2022-08-17T23:56:25.885Z,6.43
2022-08-17T23:58:55.937Z,6.47
